createdAt,value
2017-12-17T00:00:51.326Z,11.25
2017-12-17T00:03:22.889Z,11.10
2017-12-17T00:05:54.133Z,10.40
2017-12-17T00:08:27.351Z,9.20
2017-12-17T00:10:58.208Z,11.65
2017-12-17T00:13:29.619Z,13.03
2017-12-17T00:16:01.584Z,11.80
2017-12-17T00:18:32.602Z,9.05
2017-12-17T00:21:04.513Z,9.77
2017-12-17T00:23:34.792Z,9.00
2017-12-17T00:26:07.676Z,10.07
2017-12-17T00:28:39.592Z,9.30
2017-12-17T00:31:11.744Z,9.38
2017-12-17T00:33:42.023Z,9.27
2017-12-17T00:36:12.459Z,9.50
2017-12-17T00:38:42.780Z,9.52
2017-12-17T00:41:14.830Z,9.25
2017-12-17T00:43:46.525Z,9.35
2017-12-17T00:46:17.816Z,9.40
2017-12-17T00:48:48.280Z,10.00
2017-12-17T00:51:20.717Z,9.93
2017-12-17T00:53:54.837Z,11.00
2017-12-17T00:56:24.988Z,9.50
2017-12-17T00:58:56.795Z,9.32
2017-12-17T01:01:27.490Z,9.13
2017-12-17T01:03:57.736Z,9.20
2017-12-17T01:09:15.758Z,10.15
2017-12-17T01:11:47.759Z,11.03
2017-12-17T01:14:21.669Z,10.57
2017-12-17T01:16:53.478Z,9.60
2017-12-17T01:19:25.988Z,10.55
2017-12-17T01:21:57.098Z,10.23
2017-12-17T01:24:27.912Z,11.57
2017-12-17T01:26:58.338Z,10.90
2017-12-17T01:29:29.458Z,11.18
2017-12-17T01:32:00.891Z,12.45
2017-12-17T01:34:31.892Z,12.18
2017-12-17T01:37:03.245Z,11.07
2017-12-17T01:39:34.089Z,11.25
2017-12-17T01:42:08.599Z,12.18
2017-12-17T01:44:39.256Z,12.00
2017-12-17T01:47:10.122Z,12.40
2017-12-17T01:49:41.344Z,12.70
2017-12-17T01:52:11.611Z,13.25
2017-12-17T01:54:42.272Z,11.18
2017-12-17T01:57:12.793Z,11.70
2017-12-17T01:59:45.345Z,9.57
2017-12-17T02:02:16.987Z,8.30
2017-12-17T02:04:48.309Z,7.95
2017-12-17T02:07:20.266Z,8.40
2017-12-17T02:09:51.344Z,8.20
2017-12-17T02:12:21.536Z,8.77
2017-12-17T02:14:52.848Z,8.00
2017-12-17T02:17:23.146Z,8.70
2017-12-17T02:19:54.011Z,8.10
2017-12-17T02:22:24.500Z,8.73
2017-12-17T02:24:55.794Z,8.82
2017-12-17T02:27:26.709Z,8.50
2017-12-17T02:29:57.276Z,8.30
2017-12-17T02:32:27.574Z,7.43
2017-12-17T02:34:58.111Z,7.00
2017-12-17T02:37:28.916Z,7.03
2017-12-17T02:39:59.516Z,7.30
2017-12-17T02:42:30.885Z,6.60
2017-12-17T02:45:01.531Z,6.65
2017-12-17T02:47:31.938Z,6.62
2017-12-17T02:50:03.460Z,7.45
2017-12-17T02:53:39.537Z,7.60
2017-12-17T02:56:09.835Z,7.70
2017-12-17T02:58:40.153Z,8.80
2017-12-17T03:01:10.168Z,9.30
2017-12-17T03:03:41.073Z,8.00
2017-12-17T03:06:11.108Z,9.10
2017-12-17T03:08:41.909Z,8.23
2017-12-17T03:11:13.728Z,8.60
2017-12-17T03:13:43.807Z,8.43
2017-12-17T03:16:15.065Z,8.85
2017-12-17T03:18:45.840Z,9.20
2017-12-17T03:21:16.594Z,8.55
2017-12-17T03:23:47.373Z,8.65
2017-12-17T03:26:17.429Z,9.30
2017-12-17T03:28:47.555Z,10.00
2017-12-17T03:31:17.838Z,8.48
2017-12-17T03:33:51.808Z,8.13
2017-12-17T03:36:23.846Z,7.65
2017-12-17T03:38:56.386Z,5.27
2017-12-17T03:41:27.340Z,5.78
2017-12-17T03:43:57.394Z,4.20
2017-12-17T03:46:29.512Z,4.20
2017-12-17T03:49:00.843Z,3.70
2017-12-17T03:51:32.480Z,2.90
2017-12-17T03:54:04.453Z,2.30
2017-12-17T03:56:34.540Z,2.40
2017-12-17T03:59:04.991Z,2.20
2017-12-17T04:01:35.434Z,2.65
2017-12-17T04:04:20.055Z,2.40
2017-12-17T04:09:30.994Z,2.62
2017-12-17T04:12:02.229Z,3.50
2017-12-17T04:14:33.873Z,3.75
2017-12-17T04:17:05.834Z,3.80
2017-12-17T04:19:37.715Z,3.80
2017-12-17T04:22:09.693Z,3.45
2017-12-17T04:24:43.924Z,4.05
2017-12-17T04:27:14.913Z,4.22
2017-12-17T04:29:45.587Z,4.90
2017-12-17T04:32:16.455Z,4.60
2017-12-17T04:34:47.124Z,4.47
2017-12-17T04:37:17.401Z,4.15
2017-12-17T04:39:49.614Z,3.60
2017-12-17T04:42:20.914Z,3.47
2017-12-17T04:44:51.552Z,3.65
2017-12-17T04:47:21.662Z,4.10
2017-12-17T04:49:52.205Z,3.35
2017-12-17T04:52:23.224Z,3.70
2017-12-17T04:54:53.883Z,3.60
2017-12-17T04:57:25.034Z,4.60
2017-12-17T04:59:56.940Z,4.10
2017-12-17T05:02:28.888Z,4.70
2017-12-17T05:04:59.475Z,4.57
2017-12-17T05:07:30.184Z,4.60
2017-12-17T05:10:01.769Z,4.55
2017-12-17T05:12:33.913Z,4.40
2017-12-17T05:15:04.858Z,6.20
2017-12-17T05:17:35.911Z,4.87
2017-12-17T05:20:06.717Z,4.40
2017-12-17T05:22:37.603Z,4.30
2017-12-17T05:25:09.318Z,5.00
2017-12-17T05:27:40.303Z,5.32
2017-12-17T05:30:11.735Z,4.80
2017-12-17T05:32:43.143Z,5.18
2017-12-17T05:35:14.206Z,5.78
2017-12-17T05:37:45.799Z,4.75
2017-12-17T05:40:21.100Z,5.57
2017-12-17T05:42:52.578Z,5.73
2017-12-17T05:45:24.683Z,6.60
2017-12-17T05:47:59.861Z,6.05
2017-12-17T05:50:34.604Z,7.35
2017-12-17T05:53:05.119Z,6.40
2017-12-17T05:55:38.092Z,5.57
2017-12-17T05:58:09.375Z,5.60
2017-12-17T06:00:41.564Z,6.60
2017-12-17T06:03:12.335Z,6.50
2017-12-17T06:05:42.928Z,6.77
2017-12-17T06:08:14.072Z,5.80
2017-12-17T06:10:54.933Z,6.05
2017-12-17T06:13:33.882Z,6.50
2017-12-17T06:16:07.330Z,5.95
2017-12-17T06:18:45.186Z,5.47
2017-12-17T06:21:20.994Z,5.70
2017-12-17T06:24:01.287Z,8.00
2017-12-17T06:26:34.431Z,7.90
2017-12-17T06:29:08.045Z,8.25
2017-12-17T06:31:39.354Z,6.93
2017-12-17T06:34:13.255Z,6.47
2017-12-17T06:36:44.065Z,6.10
2017-12-17T06:39:15.152Z,6.05
2017-12-17T06:41:51.390Z,7.10
2017-12-17T06:44:23.619Z,6.22
2017-12-17T06:46:54.415Z,5.40
2017-12-17T06:49:24.608Z,6.00
2017-12-17T06:51:55.286Z,6.53
2017-12-17T06:54:27.381Z,6.60
2017-12-17T06:56:58.816Z,7.18
2017-12-17T06:59:30.327Z,8.50
2017-12-17T07:02:01.312Z,11.82
2017-12-17T07:04:31.887Z,7.60
2017-12-17T07:07:02.029Z,7.33
2017-12-17T07:09:33.478Z,7.40
2017-12-17T07:12:05.769Z,7.07
2017-12-17T07:18:30.956Z,7.43
2017-12-17T07:21:02.507Z,7.60
2017-12-17T07:23:33.620Z,7.97
2017-12-17T07:26:04.726Z,8.35
2017-12-17T07:28:35.856Z,8.68
2017-12-17T07:31:05.910Z,8.52
2017-12-17T07:33:38.992Z,8.88
2017-12-17T07:36:09.902Z,7.40
2017-12-17T07:46:11.418Z,7.93
2017-12-17T07:48:41.639Z,7.50
2017-12-17T07:51:13.772Z,7.97
2017-12-17T08:01:38.010Z,5.80
2017-12-17T08:04:09.570Z,6.93
2017-12-17T08:06:42.058Z,7.12
2017-12-17T08:09:12.581Z,8.63
2017-12-17T08:11:43.784Z,8.90
2017-12-17T08:14:24.033Z,8.90
2017-12-17T08:16:55.014Z,8.60
2017-12-17T08:19:26.804Z,6.20
2017-12-17T08:21:57.132Z,7.93
2017-12-17T08:24:28.206Z,7.93
2017-12-17T08:27:00.477Z,8.40
2017-12-17T08:29:31.880Z,9.07
2017-12-17T08:32:04.577Z,7.40
2017-12-17T08:34:35.390Z,7.70
2017-12-17T08:37:05.924Z,14.20
2017-12-17T08:39:36.431Z,12.00
2017-12-17T08:42:07.175Z,12.02
2017-12-17T08:44:38.376Z,11.23
2017-12-17T08:47:09.252Z,10.90
2017-12-17T08:49:39.332Z,10.88
2017-12-17T08:52:10.417Z,13.82
2017-12-17T08:54:49.744Z,14.32
2017-12-17T08:57:20.210Z,12.45
2017-12-17T08:59:50.735Z,9.82
2017-12-17T09:02:22.424Z,8.50
2017-12-17T09:04:52.917Z,10.38
2017-12-17T09:07:23.830Z,9.00
2017-12-17T09:09:54.360Z,9.20
2017-12-17T09:12:46.373Z,8.35
2017-12-17T09:15:17.717Z,7.55
2017-12-17T09:17:48.474Z,7.45
2017-12-17T09:20:19.799Z,6.62
2017-12-17T09:22:51.457Z,8.00
2017-12-17T09:25:24.733Z,7.85
2017-12-17T09:27:56.369Z,7.70
2017-12-17T09:30:27.267Z,7.60
2017-12-17T09:32:57.260Z,8.02
2017-12-17T09:35:28.181Z,8.05
2017-12-17T09:37:59.473Z,7.67
2017-12-17T09:40:29.723Z,7.20
2017-12-17T09:43:00.814Z,8.40
2017-12-17T09:45:30.827Z,8.02
2017-12-17T09:48:01.246Z,9.40
2017-12-17T09:50:32.147Z,5.25
2017-12-17T09:53:02.477Z,6.50
2017-12-17T09:55:33.978Z,6.00
2017-12-17T09:58:06.179Z,4.90
2017-12-17T10:00:37.199Z,4.87
2017-12-17T10:03:07.742Z,4.93
2017-12-17T10:05:38.247Z,3.42
2017-12-17T10:08:08.270Z,3.47
2017-12-17T10:10:38.752Z,4.32
2017-12-17T10:14:33.980Z,3.12
2017-12-17T10:17:04.003Z,2.70
2017-12-17T10:19:35.183Z,3.20
2017-12-17T10:22:05.401Z,3.20
2017-12-17T10:24:35.644Z,3.17
2017-12-17T10:27:06.185Z,3.70
2017-12-17T10:29:36.103Z,3.35
2017-12-17T10:32:16.463Z,4.10
2017-12-17T10:34:50.040Z,3.37
2017-12-17T10:37:22.927Z,2.95
2017-12-17T10:39:53.777Z,2.70
2017-12-17T10:42:27.094Z,2.78
2017-12-17T10:44:58.720Z,4.85
2017-12-17T10:47:28.991Z,5.00
2017-12-17T10:50:04.187Z,4.45
2017-12-17T10:52:35.210Z,6.12
2017-12-17T10:55:05.661Z,5.78
2017-12-17T10:57:35.703Z,6.78
2017-12-17T11:00:07.196Z,6.80
2017-12-17T11:02:37.803Z,6.35
2017-12-17T11:05:08.336Z,5.93
2017-12-17T11:07:40.810Z,3.90
2017-12-17T11:10:12.060Z,5.03
2017-12-17T11:12:41.978Z,3.73
2017-12-17T11:15:12.618Z,3.58
2017-12-17T11:17:46.552Z,4.25
2017-12-17T11:20:21.547Z,5.78
2017-12-17T11:22:52.526Z,9.70
2017-12-17T11:25:23.887Z,9.40
2017-12-17T11:27:55.527Z,5.97
2017-12-17T11:30:29.676Z,5.35
2017-12-17T11:33:00.974Z,2.50
2017-12-17T11:35:32.348Z,2.53
2017-12-17T11:38:02.429Z,2.40
2017-12-17T11:40:32.795Z,3.10
2017-12-17T11:43:03.334Z,2.80
2017-12-17T11:45:36.165Z,2.40
2017-12-17T11:48:07.766Z,2.95
2017-12-17T11:50:39.418Z,2.60
2017-12-17T11:56:05.830Z,3.17
2017-12-17T11:58:36.358Z,2.97
2017-12-17T12:01:06.501Z,2.70
2017-12-17T12:03:38.669Z,3.40
2017-12-17T12:06:15.142Z,3.35
2017-12-17T12:09:18.296Z,3.00
2017-12-17T12:11:52.931Z,2.83
2017-12-17T12:14:24.130Z,2.85
2017-12-17T12:16:54.412Z,3.40
2017-12-17T12:19:24.406Z,2.90
2017-12-17T12:21:54.757Z,2.45
2017-12-17T12:24:25.499Z,2.60
2017-12-17T12:26:55.632Z,2.43
2017-12-17T12:29:25.898Z,2.30
2017-12-17T12:31:56.072Z,1.62
2017-12-17T12:34:26.368Z,2.07
2017-12-17T12:37:00.917Z,2.10
2017-12-17T12:39:33.096Z,1.90
2017-12-17T12:42:04.510Z,1.98
2017-12-17T12:44:34.715Z,2.45
2017-12-17T12:47:05.245Z,2.30
2017-12-17T12:49:37.116Z,3.47
2017-12-17T12:52:07.592Z,2.42
2017-12-17T12:54:38.618Z,2.60
2017-12-17T12:57:10.073Z,2.30
2017-12-17T12:59:41.321Z,2.20
2017-12-17T13:02:12.389Z,1.90
2017-12-17T13:04:44.014Z,3.10
2017-12-17T13:07:14.872Z,2.60
2017-12-17T13:09:45.320Z,2.50
2017-12-17T13:12:16.081Z,2.75
2017-12-17T13:18:14.089Z,2.65
2017-12-17T13:20:44.393Z,2.85
2017-12-17T13:23:15.186Z,2.83
2017-12-17T13:25:45.953Z,2.30
2017-12-17T13:28:16.266Z,3.20
2017-12-17T13:30:49.112Z,3.50
2017-12-17T13:33:19.475Z,2.30
2017-12-17T13:36:11.262Z,2.10
2017-12-17T13:38:44.300Z,2.37
2017-12-17T13:41:14.581Z,2.30
2017-12-17T13:43:44.676Z,2.95
2017-12-17T13:46:15.578Z,2.30
2017-12-17T13:48:46.375Z,1.67
2017-12-17T13:51:19.369Z,2.20
2017-12-17T13:58:05.127Z,2.20
2017-12-17T14:00:36.466Z,2.10
2017-12-17T14:03:09.885Z,2.50
2017-12-17T14:05:40.070Z,2.17
2017-12-17T14:08:10.810Z,2.80
2017-12-17T14:10:43.384Z,2.25
2017-12-17T14:13:16.385Z,3.40
2017-12-17T14:15:46.874Z,5.15
2017-12-17T14:18:18.582Z,2.70
2017-12-17T14:20:49.087Z,3.20
2017-12-17T14:23:19.666Z,2.25
2017-12-17T14:25:54.414Z,2.45
2017-12-17T14:28:25.548Z,2.50
2017-12-17T14:30:56.395Z,2.67
2017-12-17T14:33:27.839Z,2.30
2017-12-17T14:35:59.135Z,2.05
2017-12-17T14:38:30.265Z,3.30
2017-12-17T14:41:01.614Z,3.08
2017-12-17T14:43:34.097Z,2.22
2017-12-17T14:46:06.836Z,2.65
2017-12-17T14:48:37.175Z,2.20
2017-12-17T14:51:07.960Z,2.40
2017-12-17T14:53:38.764Z,2.40
2017-12-17T14:56:17.420Z,2.50
2017-12-17T14:58:48.206Z,2.80
2017-12-17T15:01:19.783Z,2.60
2017-12-17T15:03:50.943Z,3.20
2017-12-17T15:06:22.393Z,2.30
2017-12-17T15:08:53.155Z,2.33
2017-12-17T15:11:24.294Z,2.20
2017-12-17T15:13:59.912Z,1.95
2017-12-17T15:16:31.981Z,2.75
2017-12-17T15:19:06.194Z,2.08
2017-12-17T15:21:39.759Z,2.78
2017-12-17T15:24:13.593Z,2.20
2017-12-17T15:26:45.513Z,2.50
2017-12-17T15:29:23.524Z,2.30
2017-12-17T15:31:57.114Z,2.50
2017-12-17T15:34:27.938Z,2.70
2017-12-17T15:37:03.672Z,1.90
2017-12-17T15:39:44.095Z,1.90
2017-12-17T15:42:15.793Z,1.98
2017-12-17T15:44:47.282Z,2.20
2017-12-17T15:47:17.496Z,3.00
2017-12-17T15:49:49.750Z,2.50
2017-12-17T15:52:46.974Z,2.80
2017-12-17T15:55:18.607Z,3.08
2017-12-17T15:57:49.210Z,4.47
2017-12-17T16:00:19.511Z,4.10
2017-12-17T16:02:50.119Z,4.72
2017-12-17T16:05:21.802Z,2.78
2017-12-17T16:07:52.495Z,3.20
2017-12-17T16:10:22.933Z,5.07
2017-12-17T16:12:53.964Z,3.10
2017-12-17T16:15:24.753Z,2.33
2017-12-17T16:17:59.249Z,2.47
2017-12-17T16:20:31.043Z,2.80
2017-12-17T16:23:07.089Z,2.50
2017-12-17T16:25:38.936Z,2.47
2017-12-17T16:28:09.861Z,3.00
2017-12-17T16:30:40.729Z,3.90
2017-12-17T16:33:11.741Z,4.32
2017-12-17T16:35:41.954Z,3.70
2017-12-17T16:40:58.273Z,3.47
2017-12-17T16:43:28.513Z,3.35
2017-12-17T16:45:59.000Z,3.00
2017-12-17T16:48:29.439Z,4.30
2017-12-17T16:51:45.084Z,3.37
2017-12-17T16:54:17.438Z,3.10
2017-12-17T16:56:49.253Z,2.80
2017-12-17T16:59:26.267Z,3.60
2017-12-17T17:02:12.562Z,3.10
2017-12-17T17:04:43.891Z,2.60
2017-12-17T17:07:17.187Z,3.03
2017-12-17T17:09:50.395Z,3.20
2017-12-17T17:12:21.832Z,3.47
2017-12-17T17:14:52.097Z,4.05
2017-12-17T17:17:23.203Z,3.80
2017-12-17T17:20:09.363Z,2.92
2017-12-17T17:22:46.746Z,2.83
2017-12-17T17:25:18.021Z,3.10
2017-12-17T17:27:49.944Z,6.15
2017-12-17T17:33:10.289Z,3.10
2017-12-17T17:35:42.012Z,2.45
2017-12-17T17:38:13.376Z,2.50
2017-12-17T17:40:44.220Z,2.70
2017-12-17T17:43:15.163Z,2.50
2017-12-17T17:45:45.750Z,2.87
2017-12-17T17:48:17.710Z,2.40
2017-12-17T17:50:49.464Z,3.30
2017-12-17T17:53:20.912Z,3.42
2017-12-17T17:55:52.953Z,2.87
2017-12-17T17:58:25.829Z,2.92
2017-12-17T18:00:57.217Z,2.90
2017-12-17T18:03:36.257Z,2.92
2017-12-17T18:09:42.122Z,3.28
2017-12-17T18:16:09.080Z,3.20
2017-12-17T18:18:39.497Z,3.10
2017-12-17T18:21:10.105Z,2.93
2017-12-17T18:23:41.332Z,2.75
2017-12-17T18:26:11.740Z,2.83
2017-12-17T18:28:42.419Z,3.60
2017-12-17T18:31:17.507Z,2.80
2017-12-17T18:33:50.156Z,2.90
2017-12-17T18:36:20.686Z,3.10
2017-12-17T18:38:51.364Z,3.00
2017-12-17T18:41:22.099Z,3.37
2017-12-17T18:43:54.420Z,3.20
2017-12-17T18:46:25.354Z,3.33
2017-12-17T18:48:56.732Z,3.00
2017-12-17T18:51:28.175Z,3.28
2017-12-17T18:53:59.725Z,3.70
2017-12-17T18:56:31.576Z,3.10
2017-12-17T18:59:03.070Z,3.50
2017-12-17T19:01:34.150Z,3.10
2017-12-17T19:04:11.582Z,4.10
2017-12-17T19:06:43.039Z,3.20
2017-12-17T19:09:13.372Z,3.20
2017-12-17T19:11:43.988Z,3.80
2017-12-17T19:14:14.958Z,3.60
2017-12-17T19:16:45.252Z,3.95
2017-12-17T19:19:15.702Z,4.28
2017-12-17T19:21:49.092Z,3.90
2017-12-17T19:24:20.518Z,3.08
2017-12-17T19:26:51.206Z,4.00
2017-12-17T19:29:48.752Z,4.00
2017-12-17T19:32:19.242Z,4.50
2017-12-17T19:34:49.931Z,4.72
2017-12-17T19:37:20.157Z,4.30
2017-12-17T19:39:51.062Z,4.00
2017-12-17T19:42:21.752Z,4.53
2017-12-17T19:44:52.613Z,2.70
2017-12-17T19:47:24.811Z,2.70
2017-12-17T19:49:57.338Z,4.10
2017-12-17T19:52:30.926Z,3.00
2017-12-17T19:55:10.029Z,2.92
2017-12-17T19:57:40.283Z,3.17
2017-12-17T20:00:11.569Z,2.80
2017-12-17T20:02:42.641Z,2.40
2017-12-17T20:05:15.840Z,3.00
2017-12-17T20:07:47.592Z,3.00
2017-12-17T20:10:18.242Z,3.30
2017-12-17T20:12:49.334Z,2.40
2017-12-17T20:15:20.171Z,2.40
2017-12-17T20:17:50.435Z,2.60
2017-12-17T20:20:21.696Z,2.55
2017-12-17T20:22:55.479Z,4.00
2017-12-17T20:25:26.054Z,2.90
2017-12-17T20:27:56.406Z,2.30
2017-12-17T20:30:27.658Z,2.03
2017-12-17T20:32:58.259Z,2.00
2017-12-17T20:35:30.576Z,2.40
2017-12-17T20:38:02.556Z,2.45
2017-12-17T20:40:33.239Z,2.10
2017-12-17T20:43:04.228Z,2.25
2017-12-17T20:45:34.795Z,2.50
2017-12-17T20:48:05.757Z,2.27
2017-12-17T20:50:36.457Z,2.30
2017-12-17T20:53:06.646Z,2.28
2017-12-17T20:55:38.134Z,2.33
2017-12-17T20:58:08.837Z,1.90
2017-12-17T21:00:44.212Z,2.30
2017-12-17T21:03:14.491Z,2.80
2017-12-17T21:05:45.545Z,2.67
2017-12-17T21:08:16.185Z,2.20
2017-12-17T21:10:46.857Z,2.60
2017-12-17T21:13:17.083Z,2.60
2017-12-17T21:15:47.659Z,2.10
2017-12-17T21:18:20.949Z,2.00
2017-12-17T21:20:52.874Z,2.30
2017-12-17T21:23:23.662Z,2.20
2017-12-17T21:25:54.373Z,1.70
2017-12-17T21:28:25.509Z,2.80
2017-12-17T21:30:56.517Z,2.75
2017-12-17T21:33:27.344Z,2.22
2017-12-17T21:35:58.949Z,2.37
2017-12-17T21:38:29.273Z,2.43
2017-12-17T21:40:59.476Z,2.20
2017-12-17T21:43:29.931Z,2.08
2017-12-17T21:46:00.244Z,2.30
2017-12-17T21:48:31.442Z,2.45
2017-12-17T21:51:01.730Z,1.92
2017-12-17T21:53:32.374Z,2.00
2017-12-17T21:56:02.678Z,2.10
2017-12-17T21:58:33.325Z,1.95
2017-12-17T22:01:03.683Z,2.30
2017-12-17T22:03:34.906Z,2.12
2017-12-17T22:06:05.561Z,2.40
2017-12-17T22:08:35.714Z,1.80
2017-12-17T22:11:06.664Z,2.17
2017-12-17T22:13:38.159Z,2.15
2017-12-17T22:16:09.126Z,2.10
2017-12-17T22:18:40.085Z,1.90
2017-12-17T22:21:10.367Z,1.90
2017-12-17T22:23:40.632Z,2.03
2017-12-17T22:26:11.969Z,1.98
2017-12-17T22:34:30.541Z,2.10
2017-12-17T22:37:01.494Z,2.80
2017-12-17T22:39:32.015Z,2.00
2017-12-17T22:42:08.497Z,2.40
2017-12-17T22:50:34.918Z,1.70
2017-12-17T22:56:41.439Z,1.50
2017-12-17T22:59:12.899Z,1.52
2017-12-17T23:01:44.144Z,1.30
2017-12-17T23:04:14.405Z,1.70
2017-12-17T23:06:45.442Z,1.85
2017-12-17T23:09:17.176Z,1.50
2017-12-17T23:11:48.750Z,1.20
2017-12-17T23:14:19.813Z,1.80
2017-12-17T23:16:51.410Z,1.20
2017-12-17T23:19:23.266Z,1.33
2017-12-17T23:21:54.283Z,1.60
2017-12-17T23:24:25.693Z,1.87
2017-12-17T23:26:56.058Z,1.70
2017-12-17T23:29:27.015Z,1.77
2017-12-17T23:31:57.759Z,1.70
2017-12-17T23:34:31.482Z,1.40
2017-12-17T23:37:03.902Z,1.83
2017-12-17T23:40:01.178Z,1.50
2017-12-17T23:42:32.630Z,1.58
2017-12-17T23:45:03.280Z,1.40
2017-12-17T23:47:34.638Z,1.60
2017-12-17T23:50:05.838Z,1.30
2017-12-17T23:52:37.201Z,1.33
2017-12-17T23:55:08.161Z,1.20
2017-12-17T23:57:39.561Z,1.40
